North Adams, Massachusetts
Current Conditions -  °F | °C
As of 6:52 AM on Saturday 25 Oct 2014 (Local Time) from KAQW Reporting Station
Haze Haze  
Wind Chill: 36°   Ceiling: 1800
Heat Index: 39°   Visibility: 6mi
Dew Point: 38°   Wind: 5mph
Humidity: 96%   Direction: 320°NW
Pressure: 29.82"   Gusts: NA
Location:  42.7°N, 73.11°W
Report Text: KAQW 251052Z AUTO 32004KT 6SM BR BKN018 04/03 A2982 RMK AO2 SLP102 T00390033
Loading
Personal Weather Stations






























Interactive Weather Map New forecast layout! Learn more

10-Day Weather Forecast

Advertisements
Track Severe Weather on mobile